createdAt,value
2022-10-16T00:01:42.618Z,13.90
2022-10-16T00:04:12.378Z,14.00
2022-10-16T00:06:41.446Z,14.00
2022-10-16T00:09:10.198Z,14.00
2022-10-16T00:11:40.933Z,13.90
2022-10-16T00:14:12.324Z,13.90
2022-10-16T00:16:40.705Z,13.90
2022-10-16T00:19:09.584Z,13.90
2022-10-16T00:21:39.509Z,13.90
2022-10-16T00:24:26.306Z,13.90
2022-10-16T00:26:54.766Z,13.90
2022-10-16T00:29:23.300Z,13.90
2022-10-16T00:31:51.812Z,13.90
2022-10-16T00:34:20.545Z,13.90
2022-10-16T00:36:50.523Z,13.90
2022-10-16T00:39:19.184Z,13.90
2022-10-16T00:41:47.996Z,13.90
2022-10-16T00:44:46.439Z,13.90
2022-10-16T00:47:20.752Z,13.90
2022-10-16T00:50:06.489Z,13.90
2022-10-16T00:52:36.473Z,13.90
2022-10-16T00:55:06.738Z,13.90
2022-10-16T00:57:35.770Z,13.90
2022-10-16T01:00:06.386Z,13.90
2022-10-16T01:02:52.373Z,13.90
2022-10-16T01:05:21.362Z,13.90
2022-10-16T01:07:59.852Z,13.90
2022-10-16T01:10:35.019Z,13.90
2022-10-16T01:13:08.741Z,13.90
2022-10-16T01:15:44.440Z,13.90
2022-10-16T01:18:19.092Z,13.90
2022-10-16T01:20:53.053Z,13.90
2022-10-16T01:23:37.956Z,13.90
2022-10-16T01:26:33.277Z,13.90
2022-10-16T01:29:09.918Z,13.90
2022-10-16T01:31:48.580Z,13.90
2022-10-16T01:37:14.069Z,13.90
2022-10-16T01:39:50.066Z,13.80
2022-10-16T01:42:22.820Z,13.80
2022-10-16T01:44:55.162Z,13.80
2022-10-16T01:47:27.307Z,13.80
2022-10-16T01:49:58.238Z,13.80
2022-10-16T01:52:29.387Z,13.80
2022-10-16T01:55:00.230Z,13.80
2022-10-16T01:57:30.515Z,13.80
2022-10-16T02:00:04.199Z,13.80
2022-10-16T02:02:42.430Z,13.80
2022-10-16T02:05:17.620Z,13.80
2022-10-16T02:07:46.422Z,13.80
2022-10-16T02:10:14.996Z,13.80
2022-10-16T02:12:48.142Z,13.80
2022-10-16T02:15:18.267Z,13.80
2022-10-16T02:17:46.818Z,13.80
2022-10-16T02:20:15.520Z,13.80
2022-10-16T02:22:48.017Z,13.70
2022-10-16T02:25:23.147Z,13.80
2022-10-16T02:27:57.684Z,13.80
2022-10-16T02:30:32.783Z,13.70
2022-10-16T02:33:04.211Z,13.80
2022-10-16T02:35:33.749Z,13.70
2022-10-16T02:38:02.675Z,13.70
2022-10-16T02:40:31.313Z,13.70
2022-10-16T02:42:59.679Z,13.70
2022-10-16T02:45:30.336Z,13.60
2022-10-16T02:47:58.882Z,13.60
2022-10-16T02:50:27.329Z,13.60
2022-10-16T02:52:55.896Z,13.60
2022-10-16T02:55:24.515Z,13.50
2022-10-16T02:57:53.410Z,13.50
2022-10-16T03:00:22.260Z,13.50
2022-10-16T03:02:52.340Z,13.50
2022-10-16T03:08:02.787Z,13.40
2022-10-16T03:10:31.264Z,13.40
2022-10-16T03:12:59.789Z,13.30
2022-10-16T03:15:29.182Z,13.30
2022-10-16T03:18:00.192Z,13.30
2022-10-16T03:20:29.135Z,13.30
2022-10-16T03:22:57.553Z,13.30
2022-10-16T03:25:26.166Z,13.30
2022-10-16T03:27:54.631Z,13.30
2022-10-16T03:30:23.022Z,13.40
2022-10-16T03:32:54.989Z,13.40
2022-10-16T03:35:25.875Z,13.40
2022-10-16T03:37:54.380Z,13.40
2022-10-16T03:40:22.834Z,13.40
2022-10-16T03:42:51.339Z,13.50
2022-10-16T03:45:19.822Z,13.50
2022-10-16T03:47:48.517Z,13.50
2022-10-16T03:50:17.487Z,13.50
2022-10-16T03:52:47.256Z,13.50
2022-10-16T03:55:15.721Z,13.60
2022-10-16T03:57:47.763Z,13.60
2022-10-16T04:00:16.673Z,13.60
2022-10-16T04:05:13.676Z,13.60
2022-10-16T04:07:48.879Z,13.60
2022-10-16T04:10:21.359Z,13.60
2022-10-16T04:12:49.843Z,13.60
2022-10-16T04:15:18.961Z,13.70
2022-10-16T04:17:47.549Z,13.70
2022-10-16T04:20:16.136Z,13.70
2022-10-16T04:22:44.848Z,13.70
2022-10-16T04:25:14.788Z,13.80
2022-10-16T04:27:45.963Z,13.80
2022-10-16T04:30:15.399Z,13.80
2022-10-16T04:32:44.006Z,13.80
2022-10-16T04:35:12.696Z,13.80
2022-10-16T04:37:41.656Z,13.90
2022-10-16T04:40:10.939Z,13.90
2022-10-16T04:42:41.755Z,13.90
2022-10-16T04:45:13.493Z,14.00
2022-10-16T04:47:45.323Z,14.00
2022-10-16T04:50:14.223Z,14.00
2022-10-16T04:52:43.081Z,14.00
2022-10-16T04:55:11.689Z,14.00
2022-10-16T04:57:42.310Z,14.10
2022-10-16T05:00:12.322Z,14.10
2022-10-16T05:02:40.805Z,14.10
2022-10-16T05:05:09.754Z,14.10
2022-10-16T05:07:58.374Z,14.10
2022-10-16T05:10:27.132Z,14.10
2022-10-16T05:12:56.899Z,14.20
2022-10-16T05:15:26.176Z,14.10
2022-10-16T05:17:55.764Z,14.20
2022-10-16T05:20:24.559Z,14.20
2022-10-16T05:22:52.973Z,14.20
2022-10-16T05:25:21.528Z,14.20
2022-10-16T05:27:50.583Z,14.20
2022-10-16T05:30:21.241Z,14.20
2022-10-16T05:32:50.609Z,14.20
2022-10-16T05:35:20.539Z,14.20
2022-10-16T05:37:49.728Z,14.20
2022-10-16T05:40:19.238Z,14.20
2022-10-16T05:42:47.838Z,14.30
2022-10-16T21:31:46.203Z,16.20
2022-10-16T21:34:15.007Z,16.10
2022-10-16T21:36:44.088Z,16.10
2022-10-16T21:39:16.710Z,16.10
2022-10-16T21:41:51.349Z,16.10
2022-10-16T21:44:20.565Z,16.10
2022-10-16T21:46:52.014Z,16.10
2022-10-16T21:49:20.795Z,16.10
2022-10-16T21:51:50.607Z,16.10
2022-10-16T21:54:20.661Z,16.10
2022-10-16T21:56:49.267Z,16.10
2022-10-16T21:59:38.083Z,16.00
2022-10-16T22:02:08.028Z,16.00
2022-10-16T22:04:36.662Z,16.00
2022-10-16T22:07:05.195Z,16.00
2022-10-16T22:09:33.579Z,15.90
2022-10-16T22:12:01.956Z,15.90
2022-10-16T22:14:30.377Z,15.90
2022-10-16T22:16:58.782Z,15.90
2022-10-16T22:19:39.313Z,15.90
2022-10-16T22:22:08.403Z,15.90
2022-10-16T22:24:37.004Z,15.90
2022-10-16T22:27:05.887Z,15.90
2022-10-16T22:29:34.379Z,15.90
2022-10-16T22:32:02.900Z,15.80
2022-10-16T22:34:34.622Z,15.80
2022-10-16T22:37:03.523Z,15.80
2022-10-16T22:39:32.123Z,15.80
2022-10-16T22:42:02.166Z,15.80
2022-10-16T22:44:31.004Z,15.80
2022-10-16T22:47:19.774Z,15.80
2022-10-16T22:49:49.842Z,15.70
2022-10-16T22:52:18.415Z,15.70
2022-10-16T22:54:46.931Z,15.70
2022-10-16T22:57:15.535Z,15.70
2022-10-16T22:59:44.000Z,15.70
2022-10-16T23:02:12.321Z,15.70
2022-10-16T23:04:40.659Z,15.70
2022-10-16T23:07:10.518Z,15.70
2022-10-16T23:09:39.091Z,15.70
2022-10-16T23:12:07.622Z,15.60
2022-10-16T23:14:36.038Z,15.60
2022-10-16T23:17:04.449Z,15.60
2022-10-16T23:19:32.888Z,15.60
2022-10-16T23:22:01.416Z,15.60
2022-10-16T23:24:33.369Z,15.60
2022-10-16T23:27:01.937Z,15.60
2022-10-16T23:29:30.693Z,15.60
2022-10-16T23:31:59.450Z,15.60
2022-10-16T23:34:27.997Z,15.60
2022-10-16T23:36:56.484Z,15.60
2022-10-16T23:39:24.974Z,15.60
2022-10-16T23:41:54.858Z,15.60
2022-10-16T23:44:23.489Z,15.60
2022-10-16T23:46:51.914Z,15.60
2022-10-16T23:49:20.402Z,15.60
2022-10-16T23:51:48.920Z,15.60
2022-10-16T23:54:17.508Z,15.50
2022-10-16T23:56:46.077Z,15.50
2022-10-16T23:59:41.479Z,15.50
